Supply, Virginia
Current Conditions -  °F | °C
As of 12:55 PM on Sunday 21 Dec 2014 (Local Time) from KXSA Reporting Station
Scattered Clouds Scattered Clouds  
Wind Chill: 42°   Ceiling: Unl
Heat Index: 42°   Visibility: 10mi
Dew Point: 23°   Wind: 3mph
Humidity: 47%   Direction: 340°NNW
Pressure: 30.32"   Gusts: NA
Location:  38.094°N, 77.0989°W
Report Text: KXSA 211755Z AUTO 34003KT 10SM SCT060 06/M05 A3032 RMK AO2 T00581048 10058 20008
Loading
Personal Weather Stations






























Interactive Weather Map New forecast layout! Learn more

10-Day Weather Forecast

Advertisements
Track Severe Weather on mobile